Forside
METAR-TAF:

METAR-TAF

Lufthavne :

Fukuoka, Japan

Breddekreds: 33-35N, længdekreds: 130-27E, højde: 9 m

Aktuelle vejr

Denne rapport blev lavet for 29 minutter siden, kl. 18:00 UTC
Vind 3 kt fra sydsydøst, varierende mellem østsydøst og vest
Temperatur 9°C
Fugtighed 87%
Tryk 1018 hPa
Sigt 10 km eller mere

METAR: RJFF 031800Z AUTO 16003KT 110V270 9999 NCD 09/07 Q1018 NOSIG RMK A3007

Tid: 03:29 (18:29 UTC)

Vejrudsigter

Denne rapport blev lavet for 1 time og 24 minutter siden, kl. 17:05 UTC
Foreløbig gælder fra 03 på 18 UTC til 05 på 00 UTC
Vind 4 kt fra sydsydøst
Sigt 10 km eller mere
Nogle få skyer i en højde af 3000 ft
ændring
fra 03 på 23 UTC til 04 på 01 UTC
Vind 11 kt fra vestnordvest

TAF: RJFF 031705Z 0318/0500 15004KT 9999 FEW030 BECMG 0323/0401 29011KT

Vejrobservationer og prognoser fra mere end 4000 lufthavne (METAR og TAF).

De gule og røde prikker repræsenterer de meteorologiske stationer.

Flyt musen over at se navnet på stationen.

Så klik over at se vejr observationer og prognoser.

At skifte det kort: Klik på de grønne knapper med et sort kors for at zoome ind; på den grønne knap med en bindestreg for at zoome ud; eller på de grønne pile for tilstødende kort.


METAR-TAF: